createdAt,value
2023-01-11T05:23:19.395Z,1.45
2023-01-11T05:45:32.949Z,1.73
2023-01-11T05:48:34.064Z,1.36
2023-01-11T06:13:16.432Z,1.89
2023-01-11T06:15:44.207Z,1.98
2023-01-11T06:18:15.948Z,1.93
2023-01-11T06:20:47.907Z,1.65
2023-01-11T06:23:27.525Z,1.50
2023-01-11T06:26:04.274Z,1.73
2023-01-11T06:29:24.917Z,1.90
2023-01-11T06:31:55.820Z,1.71
2023-01-11T06:34:25.513Z,1.78
2023-01-11T06:36:56.085Z,1.86
2023-01-11T06:39:27.855Z,1.90
2023-01-11T06:41:57.552Z,1.95
2023-01-11T06:44:27.135Z,1.88
2023-01-11T06:46:56.602Z,1.86
2023-01-11T06:49:25.084Z,1.96
2023-01-11T06:52:21.723Z,2.09
2023-01-11T06:54:56.380Z,2.15
2023-01-11T06:57:26.198Z,2.18
2023-01-11T06:59:54.449Z,2.21
2023-01-11T07:02:25.298Z,2.26
2023-01-11T07:04:54.886Z,2.38
2023-01-11T07:07:25.350Z,2.41
2023-01-11T07:09:55.873Z,2.28
2023-01-11T07:12:27.108Z,2.05
2023-01-11T07:15:00.398Z,2.49
2023-01-11T07:17:32.875Z,2.63
2023-01-11T07:20:01.702Z,2.61
2023-01-11T07:22:30.923Z,2.67
2023-01-11T07:25:01.006Z,2.84
2023-01-11T07:27:31.100Z,2.41
2023-01-11T07:30:06.957Z,2.62
2023-01-11T07:32:36.308Z,2.95
2023-01-11T07:35:04.592Z,2.86
2023-01-11T07:37:34.375Z,2.84
2023-01-11T07:40:02.558Z,2.36
2023-01-11T07:42:50.722Z,2.62
2023-01-11T07:45:18.482Z,2.81
2023-01-11T07:47:49.478Z,2.96
2023-01-11T07:50:17.381Z,3.03
2023-01-11T07:52:50.319Z,3.17
2023-01-11T07:55:18.307Z,3.32
2023-01-11T07:57:46.197Z,3.47
2023-01-11T08:00:14.620Z,3.47
2023-01-11T08:02:43.340Z,3.81
2023-01-11T08:05:13.517Z,4.17
2023-01-11T08:07:42.519Z,4.31
2023-01-11T08:10:38.393Z,4.56
2023-01-11T08:13:30.131Z,4.61
2023-01-11T08:16:01.924Z,4.83
2023-01-11T08:18:29.463Z,4.92
2023-01-11T08:20:58.871Z,5.15
2023-01-11T08:23:27.233Z,5.41
2023-01-11T08:25:57.863Z,5.40
2023-01-11T08:28:26.330Z,5.31
2023-01-11T08:30:53.896Z,5.53
2023-01-11T08:33:22.467Z,5.24
2023-01-11T08:35:49.900Z,5.41
2023-01-11T08:38:19.462Z,5.62
2023-01-11T08:40:46.860Z,5.66
2023-01-11T08:43:14.269Z,5.99
2023-01-11T08:45:41.689Z,6.34
2023-01-11T08:48:09.103Z,6.28
2023-01-11T08:50:37.726Z,6.49
2023-01-11T08:53:05.149Z,6.91
2023-01-11T08:55:34.588Z,6.98
2023-01-11T08:58:02.018Z,7.72
2023-01-11T09:00:30.562Z,7.81
2023-01-11T09:03:00.791Z,8.46
2023-01-11T09:05:28.336Z,8.38
2023-01-11T09:07:55.977Z,9.11
2023-01-11T09:10:27.336Z,10.01
2023-01-11T09:12:56.672Z,11.03
2023-01-11T09:15:25.183Z,11.08
2023-01-11T09:17:53.543Z,10.83
2023-01-11T09:20:21.123Z,10.91
2023-01-11T09:22:52.913Z,11.06
2023-01-11T09:25:21.196Z,10.85
2023-01-11T09:27:51.173Z,10.60
2023-01-11T09:30:21.436Z,10.71
2023-01-11T09:32:51.063Z,10.43
2023-01-11T09:35:21.987Z,10.82
2023-01-11T09:37:50.660Z,10.39
2023-01-11T09:40:24.210Z,10.68
2023-01-11T09:43:00.916Z,10.80
2023-01-11T09:45:34.102Z,11.12
2023-01-11T09:48:13.275Z,11.09
2023-01-11T09:50:45.903Z,11.28
2023-01-11T09:53:19.063Z,11.29
2023-01-11T09:55:47.357Z,11.73
2023-01-11T09:58:46.669Z,12.29
2023-01-11T10:01:35.178Z,12.74
2023-01-11T10:04:14.030Z,13.30
2023-01-11T10:06:44.239Z,12.47
2023-01-11T10:18:33.482Z,12.95
2023-01-11T10:19:31.434Z,12.93
2023-01-11T10:22:01.496Z,12.66
2023-01-11T10:25:25.361Z,11.74
2023-01-11T10:28:20.124Z,12.68
2023-01-11T10:30:58.872Z,12.29
2023-01-11T10:33:50.470Z,12.55
2023-01-11T10:37:10.946Z,12.87
2023-01-11T10:40:19.642Z,12.27
2023-01-11T10:42:56.966Z,12.39
2023-01-11T10:45:39.861Z,12.44
2023-01-11T10:48:18.686Z,12.56
2023-01-11T10:50:54.905Z,12.18
2023-01-11T10:53:50.044Z,12.56
2023-01-11T10:56:27.879Z,11.71
2023-01-11T10:59:11.026Z,12.06
2023-01-11T11:01:46.829Z,12.17
2023-01-11T11:04:39.417Z,12.29
2023-01-11T11:07:34.484Z,11.95
2023-01-11T11:10:18.879Z,11.85
2023-01-11T11:13:28.433Z,12.15
2023-01-11T11:16:24.744Z,12.08
2023-01-11T11:18:58.491Z,12.01
2023-01-11T11:21:30.610Z,12.07
2023-01-11T11:24:05.633Z,12.21
2023-01-11T11:26:41.592Z,12.12
2023-01-11T11:29:11.722Z,12.32
2023-01-11T11:31:44.146Z,12.24
2023-01-11T11:34:18.649Z,11.89
2023-01-11T11:36:50.228Z,11.97
2023-01-11T11:39:27.321Z,12.11
2023-01-11T11:41:57.566Z,12.13
2023-01-11T11:44:27.818Z,11.74
2023-01-11T11:47:06.330Z,11.91
2023-01-11T11:49:35.795Z,12.02
2023-01-11T11:52:05.537Z,11.99
2023-01-11T11:54:43.259Z,12.00
2023-01-11T11:57:25.155Z,12.10
2023-01-11T12:00:03.953Z,11.53
2023-01-11T12:02:34.501Z,11.87
2023-01-11T12:05:10.026Z,11.98
2023-01-11T12:07:54.277Z,12.11
2023-01-11T12:10:26.508Z,11.89
2023-01-11T12:13:01.958Z,11.97
2023-01-11T12:15:30.523Z,11.99
2023-01-11T12:20:55.614Z,12.23
2023-01-11T12:23:34.464Z,11.97
2023-01-11T12:26:06.207Z,12.10
2023-01-11T12:28:52.018Z,12.06
2023-01-11T12:31:43.493Z,12.09
2023-01-11T12:34:23.457Z,12.19
2023-01-11T12:37:33.706Z,11.93
2023-01-11T12:40:35.323Z,11.66
2023-01-11T12:43:16.040Z,11.88
2023-01-11T12:46:02.841Z,11.61
2023-01-11T12:48:31.565Z,11.78
2023-01-11T12:51:16.545Z,11.82
2023-01-11T12:53:56.181Z,11.88
2023-01-11T12:57:02.842Z,11.96
2023-01-11T12:59:43.219Z,11.71
2023-01-11T13:02:10.706Z,11.71
2023-01-11T13:04:48.618Z,11.72
2023-01-11T13:07:48.403Z,11.63
2023-01-11T13:10:40.255Z,11.69
2023-01-11T13:13:35.255Z,11.61
2023-01-11T13:16:05.803Z,11.66
2023-01-11T13:18:43.838Z,11.48
2023-01-11T13:21:34.628Z,11.47
2023-01-11T13:24:12.324Z,11.33
2023-01-11T13:26:45.174Z,11.38
2023-01-11T13:29:24.268Z,11.32
2023-01-11T13:31:55.462Z,11.40
2023-01-11T13:34:27.955Z,11.36
2023-01-11T13:37:12.922Z,11.27
2023-01-11T13:39:48.865Z,11.38
2023-01-11T13:42:38.828Z,11.09
2023-01-11T13:45:15.078Z,10.98
2023-01-11T13:47:47.755Z,10.99
2023-01-11T13:50:38.419Z,10.93
2023-01-11T13:53:41.115Z,10.93
2023-01-11T13:56:28.522Z,10.85
2023-01-11T13:59:01.868Z,10.72
2023-01-11T14:06:21.312Z,11.05
2023-01-11T14:09:19.667Z,10.94
2023-01-11T14:12:19.552Z,10.83
2023-01-11T14:19:06.069Z,10.72
2023-01-11T14:21:53.488Z,10.63
2023-01-11T14:24:44.783Z,10.46
2023-01-11T14:27:42.619Z,10.35
2023-01-11T14:30:45.829Z,10.13
2023-01-11T14:42:36.312Z,10.13
2023-01-11T14:45:32.554Z,10.15
2023-01-11T14:48:31.440Z,9.91
2023-01-11T14:51:30.670Z,9.90
2023-01-11T14:58:57.139Z,9.72
2023-01-11T15:01:33.129Z,9.46
2023-01-11T15:04:40.146Z,9.22
2023-01-11T15:07:30.743Z,9.00
2023-01-11T15:10:51.616Z,8.91
2023-01-11T15:13:50.167Z,8.75
2023-01-11T15:20:58.921Z,8.83
2023-01-11T15:37:52.750Z,8.18
2023-01-11T15:45:50.579Z,8.14
2023-01-11T15:49:15.357Z,7.96
2023-01-11T15:53:10.323Z,8.11
2023-01-11T15:56:16.474Z,7.91
2023-01-11T15:59:30.185Z,7.91
2023-01-11T16:02:15.973Z,7.59
2023-01-11T16:05:22.608Z,7.41
2023-01-11T16:08:07.627Z,7.31
2023-01-11T16:11:18.239Z,7.43
2023-01-11T16:37:21.329Z,6.55
2023-01-11T16:39:53.839Z,6.56
2023-01-11T16:42:22.520Z,6.63
2023-01-11T16:44:55.387Z,6.75
2023-01-11T16:47:23.556Z,6.77
2023-01-11T16:50:10.972Z,6.34
2023-01-11T16:52:56.139Z,6.58
2023-01-11T16:55:32.957Z,6.55
2023-01-11T16:58:04.499Z,6.64
2023-01-11T17:00:38.151Z,6.57
2023-01-11T17:03:19.308Z,6.00
2023-01-11T17:06:02.455Z,5.79
2023-01-11T17:08:41.434Z,5.79
2023-01-11T17:11:14.691Z,6.17
2023-01-11T17:14:00.376Z,6.33
2023-01-11T17:16:30.183Z,6.34
2023-01-11T17:19:05.844Z,6.45
2023-01-11T17:21:33.126Z,6.42
2023-01-11T17:24:05.586Z,6.15
2023-01-11T17:26:42.845Z,5.99
2023-01-11T17:29:17.765Z,6.26
2023-01-11T17:31:45.375Z,6.35
2023-01-11T17:34:23.649Z,6.37
2023-01-11T17:36:51.494Z,6.29
2023-01-11T17:39:33.705Z,6.40
2023-01-11T17:42:22.622Z,6.36
2023-01-11T17:45:10.422Z,6.26
2023-01-11T17:47:40.002Z,6.42
2023-01-11T17:50:30.523Z,6.54
2023-01-11T17:53:23.392Z,6.61
2023-01-11T17:55:52.334Z,6.77
2023-01-11T17:58:33.794Z,6.97
2023-01-11T18:01:18.302Z,6.87
2023-01-11T18:03:47.217Z,6.86
2023-01-11T18:06:34.766Z,6.66
2023-01-11T18:09:06.286Z,6.59
2023-01-11T18:11:41.626Z,6.57
2023-01-11T18:14:20.670Z,6.46
2023-01-11T18:17:03.037Z,6.39
2023-01-11T18:19:33.997Z,6.36
2023-01-11T18:22:01.622Z,6.69
2023-01-11T18:24:34.685Z,6.71
2023-01-11T18:27:16.677Z,6.75
2023-01-11T18:29:44.676Z,6.72
2023-01-11T18:32:14.064Z,6.62
2023-01-11T18:34:42.813Z,6.69
2023-01-11T18:37:11.084Z,6.74
2023-01-11T18:39:40.223Z,6.68
2023-01-11T18:42:08.274Z,6.68
2023-01-11T18:44:37.779Z,6.68
2023-01-11T18:47:17.276Z,5.85
2023-01-11T18:49:45.479Z,6.11
2023-01-11T18:52:13.691Z,6.47
2023-01-11T18:54:42.347Z,6.38
2023-01-11T18:57:10.364Z,6.43
2023-01-11T18:59:38.222Z,6.58
2023-01-11T19:02:26.081Z,6.70
2023-01-11T19:04:56.122Z,6.78
2023-01-11T19:07:26.189Z,6.82
2023-01-11T19:09:56.711Z,6.87
2023-01-11T19:12:24.204Z,6.72
2023-01-11T19:14:51.675Z,6.10
2023-01-11T19:17:19.313Z,5.90
2023-01-11T19:19:46.730Z,6.13
2023-01-11T19:22:14.191Z,6.39
2023-01-11T19:24:41.817Z,6.53
2023-01-11T19:27:09.416Z,6.30
2023-01-11T19:29:36.800Z,6.67
2023-01-11T19:32:04.393Z,6.44
2023-01-11T19:34:33.972Z,6.55
2023-01-11T19:37:01.554Z,6.65
2023-01-11T19:39:28.932Z,6.77
2023-01-11T19:42:06.829Z,6.83
2023-01-11T19:44:39.111Z,6.51
2023-01-11T19:47:12.557Z,6.84
2023-01-11T19:49:42.315Z,6.80
2023-01-11T19:52:19.109Z,6.89
2023-01-11T19:54:47.922Z,6.70
2023-01-11T19:57:20.927Z,6.72
2023-01-11T19:59:50.145Z,6.68
2023-01-11T20:02:22.417Z,6.55
2023-01-11T20:04:50.422Z,6.60
2023-01-11T20:07:18.442Z,6.68
2023-01-11T20:09:46.275Z,6.85
2023-01-11T20:12:16.928Z,6.68
2023-01-11T20:14:45.574Z,6.71
2023-01-11T20:17:38.992Z,6.63
2023-01-11T20:20:07.366Z,6.79
2023-01-11T20:22:34.994Z,6.96
2023-01-11T20:25:02.695Z,6.99
2023-01-11T20:27:34.203Z,6.84
2023-01-11T20:30:01.817Z,6.93
2023-01-11T20:32:40.791Z,7.08
2023-01-11T20:35:10.365Z,7.29
2023-01-11T20:37:38.043Z,7.13
2023-01-11T20:40:06.138Z,7.28
2023-01-11T20:42:34.401Z,7.23
2023-01-11T20:45:01.930Z,7.12
2023-01-11T20:47:29.619Z,6.84
2023-01-11T20:49:57.575Z,6.93
2023-01-11T20:52:25.263Z,6.90
2023-01-11T20:54:52.766Z,6.45
2023-01-11T20:57:20.277Z,6.42
2023-01-11T20:59:47.968Z,6.73
2023-01-11T21:02:15.510Z,6.74
2023-01-11T21:04:43.328Z,6.80
2023-01-11T21:07:10.984Z,6.88
2023-01-11T21:09:39.727Z,7.03
2023-01-11T21:12:09.463Z,6.90
2023-01-11T21:14:37.380Z,6.76
2023-01-11T21:17:05.041Z,6.77
2023-01-11T21:19:32.678Z,6.84
2023-01-11T21:22:00.185Z,7.03
2023-01-11T21:24:27.884Z,7.20
2023-01-11T21:26:55.434Z,7.03
2023-01-11T21:29:23.344Z,7.00
2023-01-11T21:31:50.977Z,7.09
2023-01-11T21:34:18.518Z,6.99
2023-01-11T21:36:46.041Z,6.94
2023-01-11T21:39:15.318Z,7.01
2023-01-11T21:41:55.628Z,7.08
2023-01-11T21:44:28.794Z,7.04
2023-01-11T21:46:56.972Z,7.12
2023-01-11T21:49:25.694Z,7.15
2023-01-11T21:51:53.267Z,7.15
2023-01-11T21:54:20.964Z,7.16
2023-01-11T21:56:49.736Z,7.13
2023-01-11T21:59:17.853Z,7.21
2023-01-11T22:01:46.502Z,7.46
2023-01-11T22:04:16.195Z,7.47
2023-01-11T22:06:51.203Z,7.39
2023-01-11T22:09:20.305Z,7.54
2023-01-11T22:11:48.025Z,7.32
2023-01-11T22:14:15.656Z,7.30
2023-01-11T22:16:44.756Z,6.87
2023-01-11T22:19:12.604Z,6.73
2023-01-11T22:21:40.198Z,6.83
2023-01-11T22:24:12.055Z,7.04
2023-01-11T22:26:40.254Z,6.74
2023-01-11T22:29:12.109Z,6.69
2023-01-11T22:31:44.276Z,6.86
2023-01-11T22:34:13.826Z,6.74
2023-01-11T22:36:42.399Z,6.92
2023-01-11T22:39:10.862Z,6.77
2023-01-11T22:41:40.292Z,6.64
2023-01-11T22:44:09.535Z,6.71
2023-01-11T22:46:37.813Z,6.87
2023-01-11T22:49:11.024Z,6.64
2023-01-11T22:51:42.572Z,6.49
2023-01-11T22:54:10.896Z,6.52
2023-01-11T22:56:42.678Z,6.79
2023-01-11T22:59:11.092Z,6.76
2023-01-11T23:01:41.304Z,6.98
2023-01-11T23:04:13.181Z,7.08
2023-01-11T23:06:42.335Z,7.12
2023-01-11T23:09:15.964Z,6.82
2023-01-11T23:12:03.762Z,6.82
2023-01-11T23:14:33.306Z,6.91
2023-01-11T23:17:07.357Z,7.08
2023-01-11T23:19:37.745Z,7.03
2023-01-11T23:22:06.482Z,7.20
2023-01-11T23:24:36.155Z,7.03
2023-01-11T23:27:04.288Z,7.10
2023-01-11T23:29:32.148Z,7.10
2023-01-11T23:32:00.007Z,7.20
2023-01-11T23:34:27.873Z,7.26
2023-01-11T23:36:55.819Z,7.22
2023-01-11T23:39:24.015Z,7.38
2023-01-11T23:42:10.320Z,7.13
2023-01-11T23:44:38.035Z,7.30
2023-01-11T23:47:21.266Z,7.27
2023-01-11T23:49:50.143Z,7.20
2023-01-11T23:52:19.567Z,7.33
2023-01-11T23:54:47.835Z,6.83
2023-01-11T23:57:16.734Z,6.90
2023-01-11T23:59:58.852Z,7.21
